createdAt,value
2018-09-06T03:57:06.983Z,52.60
2018-09-06T04:04:29.883Z,55.60
2018-09-06T04:06:57.738Z,60.45
2018-09-06T04:09:25.834Z,60.97
2018-09-06T04:11:53.482Z,53.00
2018-09-06T04:19:20.997Z,56.83
2018-09-06T04:21:48.712Z,52.80
2018-09-06T04:24:17.177Z,56.80
2018-09-06T04:26:45.330Z,50.50
2018-09-06T04:29:13.818Z,51.60
2018-09-06T04:31:41.405Z,57.15
2018-09-06T04:34:09.088Z,54.27
2018-09-06T04:36:37.738Z,55.50
2018-09-06T04:39:07.845Z,54.10
2018-09-06T04:41:35.643Z,52.00
2018-09-06T04:44:03.951Z,57.30
2018-09-06T04:46:31.708Z,53.17
2018-09-06T04:48:59.792Z,52.27
2018-09-06T04:51:29.347Z,51.57
2018-09-06T04:54:03.258Z,50.70
2018-09-06T04:56:33.043Z,48.73
2018-09-06T04:59:02.740Z,53.10
2018-09-06T05:04:23.525Z,50.50
2018-09-06T05:06:54.211Z,52.10
2018-09-06T05:09:23.218Z,55.43
2018-09-06T05:11:59.186Z,55.57
2018-09-06T05:14:29.729Z,56.50
2018-09-06T05:17:03.243Z,58.90
2018-09-06T05:19:32.554Z,60.97
2018-09-06T05:22:01.253Z,58.83
2018-09-06T05:24:29.133Z,50.97
2018-09-06T05:26:58.140Z,56.20
2018-09-06T05:29:26.527Z,56.40
2018-09-06T05:31:55.640Z,57.83
2018-09-06T05:34:23.440Z,54.13
2018-09-06T05:36:51.795Z,50.37
2018-09-06T05:39:20.268Z,48.57
2018-09-06T05:41:49.363Z,51.00
2018-09-06T05:44:17.615Z,52.17
2018-09-06T05:46:45.879Z,53.83
2018-09-06T05:49:13.831Z,56.70
2018-09-06T05:51:41.751Z,54.83
2018-09-06T05:54:10.741Z,51.80
2018-09-06T05:56:39.661Z,51.30
2018-09-06T05:59:07.451Z,55.87
2018-09-06T06:01:35.821Z,58.43
2018-09-06T06:04:05.416Z,54.07
2018-09-06T06:06:34.737Z,54.00
2018-09-06T06:09:04.895Z,54.20
2018-09-06T06:11:33.901Z,55.57
2018-09-06T06:14:02.908Z,59.97
2018-09-06T06:16:31.600Z,57.10
2018-09-06T06:19:11.061Z,56.40
2018-09-06T06:21:39.965Z,62.73
2018-09-06T06:24:13.080Z,62.40
2018-09-06T06:26:42.132Z,55.77
2018-09-06T06:29:10.304Z,62.70
2018-09-06T06:31:38.929Z,57.93
2018-09-06T06:34:06.946Z,61.67
2018-09-06T06:36:36.149Z,56.77
2018-09-06T07:16:13.942Z,47.47
2018-09-06T07:30:58.532Z,41.77
2018-09-06T07:33:26.294Z,41.80
2018-09-06T07:35:54.200Z,45.23
2018-09-06T07:38:22.142Z,46.00
2018-09-06T07:40:49.924Z,47.63
2018-09-06T07:43:17.710Z,45.77
2018-09-06T07:45:45.872Z,44.63
2018-09-06T07:48:13.451Z,44.30
2018-09-06T07:50:41.219Z,44.50
2018-09-06T07:53:09.095Z,44.77
2018-09-06T07:55:36.970Z,46.87
2018-09-06T07:58:05.086Z,44.70
2018-09-06T08:00:32.968Z,45.07
2018-09-06T08:03:00.736Z,45.47
2018-09-06T08:05:28.690Z,46.40
2018-09-06T08:07:56.589Z,46.10
2018-09-06T08:10:24.324Z,42.40
2018-09-06T08:12:52.219Z,41.97
2018-09-06T08:15:20.013Z,41.73
2018-09-06T08:17:54.375Z,42.93
2018-09-06T08:20:22.184Z,43.77
2018-09-06T08:22:50.018Z,43.60
2018-09-06T08:25:17.793Z,44.90
2018-09-06T08:27:45.689Z,44.00
2018-09-06T08:30:13.464Z,40.13
2018-09-06T08:32:41.216Z,45.47
2018-09-06T08:35:09.215Z,45.70
2018-09-06T08:37:37.010Z,41.83
2018-09-06T08:40:04.755Z,42.30
2018-09-06T08:42:32.427Z,41.77
2018-09-06T08:45:00.152Z,38.70
2018-09-06T08:47:28.051Z,38.90
2018-09-06T08:49:55.743Z,34.47
2018-09-06T08:52:23.445Z,35.77
2018-09-06T08:54:51.011Z,33.90
2018-09-06T08:57:18.814Z,35.80
2018-09-06T08:59:46.368Z,32.13
2018-09-06T09:02:14.488Z,33.53
2018-09-06T09:04:42.127Z,33.40
2018-09-06T09:07:09.921Z,34.27
2018-09-06T09:09:37.663Z,34.57
2018-09-06T09:12:05.466Z,31.00
2018-09-06T09:14:33.620Z,28.77
2018-09-06T09:17:01.747Z,29.57
2018-09-06T09:19:29.494Z,28.70
2018-09-06T09:21:57.300Z,31.30
2018-09-06T09:24:26.043Z,31.13
2018-09-06T09:26:53.756Z,29.93
2018-09-06T09:29:21.574Z,31.80
2018-09-06T09:31:49.941Z,31.63
2018-09-06T09:34:17.764Z,31.73
2018-09-06T09:36:45.859Z,31.50
2018-09-06T09:39:13.645Z,32.33
2018-09-06T09:41:41.455Z,31.90
2018-09-06T09:44:09.185Z,34.40
2018-09-06T09:49:04.217Z,36.87
2018-09-06T09:51:32.062Z,37.07
2018-09-06T09:54:00.042Z,37.77
2018-09-06T09:56:28.138Z,39.40
2018-09-06T09:58:55.957Z,42.40
2018-09-06T10:01:28.373Z,43.00
2018-09-06T10:04:02.009Z,45.63
2018-09-06T10:06:35.590Z,46.10
2018-09-06T10:09:09.647Z,46.40
2018-09-06T10:11:37.759Z,48.27
2018-09-06T10:14:05.791Z,43.60
2018-09-06T10:16:34.989Z,38.30
2018-09-06T10:19:02.802Z,43.37
2018-09-06T10:21:32.107Z,43.63
2018-09-06T10:24:00.221Z,40.33
2018-09-06T10:26:28.428Z,40.13
2018-09-06T10:28:56.882Z,43.03
2018-09-06T10:31:24.967Z,42.47
2018-09-06T10:33:53.768Z,41.90
2018-09-06T10:36:21.746Z,40.80
2018-09-06T10:38:49.422Z,41.63
2018-09-06T10:41:17.297Z,39.63
2018-09-06T10:43:45.379Z,38.13
2018-09-06T10:46:13.128Z,39.20
2018-09-06T10:48:41.756Z,40.90
2018-09-06T10:51:09.744Z,42.57
2018-09-06T10:53:38.074Z,43.30
2018-09-06T10:56:06.016Z,43.37
2018-09-06T10:58:35.238Z,40.40
2018-09-06T11:01:08.926Z,42.87
2018-09-06T11:03:37.495Z,41.77
2018-09-06T11:06:05.487Z,44.53
2018-09-06T11:08:33.885Z,43.77
2018-09-06T11:11:01.596Z,44.40
2018-09-06T11:13:30.036Z,47.23
2018-09-06T11:15:58.129Z,52.90
2018-09-06T11:18:26.816Z,52.20
2018-09-06T12:44:38.492Z,46.83
2018-09-06T12:52:05.880Z,43.95
2018-09-06T13:04:24.146Z,48.20
2018-09-06T13:06:53.262Z,47.10
2018-09-06T13:09:21.334Z,46.57
2018-09-06T13:29:00.708Z,47.20
2018-09-06T15:14:44.066Z,29.60
2018-09-06T15:17:12.222Z,29.17
2018-09-06T15:19:40.317Z,27.20
2018-09-06T15:22:08.853Z,26.50
2018-09-06T15:24:37.248Z,24.23
2018-09-06T15:27:05.582Z,23.87
2018-09-06T15:29:33.959Z,26.30
2018-09-06T15:32:02.355Z,23.60
2018-09-06T15:34:30.363Z,24.27
2018-09-06T15:36:58.287Z,25.00
2018-09-06T15:39:26.760Z,24.90
2018-09-06T15:41:54.856Z,24.65
2018-09-06T15:46:50.438Z,25.57
2018-09-06T15:49:18.765Z,25.70
2018-09-06T15:56:40.876Z,25.53
2018-09-06T15:59:09.243Z,25.30
2018-09-06T16:01:37.469Z,29.13
2018-09-06T16:04:05.712Z,27.80
2018-09-06T16:06:33.776Z,27.90
2018-09-06T16:09:01.446Z,28.37
2018-09-06T16:11:29.164Z,29.60
2018-09-06T16:13:57.641Z,30.53
2018-09-06T16:16:25.894Z,28.07
2018-09-06T16:18:53.867Z,28.20
2018-09-06T16:21:21.624Z,30.00
2018-09-06T16:23:49.484Z,27.37
2018-09-06T16:26:18.405Z,29.60
2018-09-06T16:28:47.151Z,29.50
2018-09-06T16:31:15.393Z,29.63
2018-09-06T16:33:43.240Z,31.93
2018-09-06T16:36:11.560Z,31.83
2018-09-06T16:38:41.183Z,29.90
2018-09-06T16:41:09.147Z,33.90
2018-09-06T16:43:40.936Z,32.73
2018-09-06T16:46:08.798Z,32.17
2018-09-06T16:48:36.513Z,35.00
2018-09-06T16:51:05.096Z,35.67
2018-09-06T16:53:32.968Z,34.70
2018-09-06T16:56:00.818Z,34.80
2018-09-06T16:58:29.659Z,36.47
2018-09-06T17:00:57.826Z,35.33
2018-09-06T17:03:25.506Z,35.47
2018-09-06T17:05:54.123Z,34.53
2018-09-06T17:08:21.883Z,34.00
2018-09-06T17:10:51.976Z,36.63
2018-09-06T17:13:19.847Z,35.47
2018-09-06T17:15:47.706Z,32.47
2018-09-06T17:18:15.424Z,34.60
2018-09-06T17:20:43.094Z,34.33
2018-09-06T17:23:10.700Z,33.37
2018-09-06T17:25:38.780Z,32.87
2018-09-06T17:28:07.648Z,32.10
2018-09-06T17:30:35.871Z,31.17
2018-09-06T17:33:03.969Z,29.97
2018-09-06T17:35:36.240Z,27.40
2018-09-06T17:38:05.192Z,25.27
2018-09-06T17:40:34.372Z,22.60
2018-09-06T17:43:02.320Z,20.77
2018-09-06T17:45:31.338Z,18.33
2018-09-06T17:47:59.583Z,17.07
2018-09-06T17:50:27.715Z,17.10
2018-09-06T17:52:56.014Z,15.80
2018-09-06T17:55:23.986Z,15.17
2018-09-06T17:57:51.764Z,14.97
2018-09-06T18:00:19.746Z,14.67
2018-09-06T18:02:47.621Z,14.97
2018-09-06T18:05:15.611Z,14.40
2018-09-06T18:07:44.680Z,13.77
2018-09-06T18:10:13.361Z,15.13
2018-09-06T18:12:43.017Z,14.70
2018-09-06T18:15:11.371Z,15.10
2018-09-06T18:17:39.129Z,14.47
2018-09-06T18:20:07.295Z,13.73
2018-09-06T18:22:34.896Z,13.97
2018-09-06T18:25:09.633Z,12.83
2018-09-06T18:27:37.481Z,12.80
2018-09-06T18:30:06.082Z,12.67
2018-09-06T18:32:34.608Z,13.27
2018-09-06T18:35:04.707Z,12.10
2018-09-06T18:37:32.296Z,11.50
2018-09-06T18:40:00.486Z,12.00
2018-09-06T18:42:28.592Z,12.00
2018-09-06T18:44:56.956Z,10.43
2018-09-06T18:47:24.504Z,11.27
2018-09-06T18:49:52.308Z,9.80
2018-09-06T18:52:20.204Z,9.50
2018-09-06T18:54:49.767Z,8.97
2018-09-06T18:57:20.831Z,9.03
2018-09-06T18:59:49.750Z,10.17
2018-09-06T19:02:17.687Z,9.97
2018-09-06T19:04:47.076Z,9.53
2018-09-06T19:07:15.646Z,9.63
2018-09-06T19:09:43.605Z,9.53
2018-09-06T19:12:11.281Z,11.17
2018-09-06T19:14:39.455Z,9.60
2018-09-06T19:17:07.226Z,9.43
2018-09-06T19:19:35.357Z,9.67
2018-09-06T19:22:03.592Z,9.90
2018-09-06T19:24:33.455Z,10.20
2018-09-06T19:27:02.277Z,11.10
2018-09-06T19:29:31.053Z,10.77
2018-09-06T19:31:59.078Z,10.90
2018-09-06T19:34:27.233Z,10.53
2018-09-06T19:36:55.246Z,9.93
2018-09-06T19:39:22.931Z,11.13
2018-09-06T19:41:51.173Z,10.80
2018-09-06T19:44:19.793Z,10.30
2018-09-06T19:46:48.337Z,10.10
2018-09-06T19:49:16.688Z,11.83
2018-09-06T19:51:44.696Z,11.97
2018-09-06T19:54:12.318Z,11.07
2018-09-06T19:56:40.327Z,11.93
2018-09-06T19:59:08.278Z,12.00
2018-09-06T20:01:36.882Z,11.50
2018-09-06T20:04:15.002Z,12.50
2018-09-06T20:06:43.129Z,11.73
2018-09-06T20:09:10.844Z,13.70
2018-09-06T20:11:39.242Z,12.47
2018-09-06T20:14:07.255Z,11.80
2018-09-06T20:16:36.791Z,12.80
2018-09-06T20:19:05.523Z,11.30
2018-09-06T20:21:33.842Z,12.20
2018-09-06T20:24:02.629Z,12.33
2018-09-06T20:26:31.645Z,12.50
2018-09-06T20:28:59.763Z,13.40
2018-09-06T20:31:28.083Z,14.03
2018-09-06T20:33:56.624Z,12.73
2018-09-06T20:36:24.932Z,14.30
2018-09-06T20:39:03.365Z,15.43
2018-09-06T20:41:31.439Z,16.40
2018-09-06T20:44:00.332Z,16.30
2018-09-06T20:46:28.793Z,14.73
2018-09-06T20:48:57.043Z,15.60
2018-09-06T20:51:25.267Z,16.43
2018-09-06T20:57:03.810Z,15.70
2018-09-06T20:59:37.383Z,16.53
2018-09-06T21:02:11.297Z,14.87
2018-09-06T21:04:39.728Z,14.70
2018-09-06T21:07:12.177Z,15.97
2018-09-06T21:09:40.880Z,14.80
2018-09-06T21:12:09.633Z,15.80
2018-09-06T21:14:39.356Z,14.90
2018-09-06T21:17:08.713Z,16.67
2018-09-06T21:19:38.132Z,15.67
2018-09-06T21:22:06.816Z,16.23
2018-09-06T21:24:35.617Z,16.00
2018-09-06T21:27:05.762Z,16.00
2018-09-06T21:29:34.398Z,15.90
2018-09-06T21:32:04.288Z,15.77
2018-09-06T21:34:32.936Z,16.50
2018-09-06T21:37:02.224Z,16.50
2018-09-06T21:39:30.693Z,16.57
2018-09-06T21:42:02.156Z,17.00
2018-09-06T21:44:30.695Z,18.47
2018-09-06T21:46:59.309Z,18.47
2018-09-06T21:49:28.902Z,15.23
2018-09-06T21:51:58.385Z,17.23
2018-09-06T21:54:28.492Z,16.50
2018-09-06T21:56:57.093Z,17.80
2018-09-06T21:59:25.726Z,16.87
2018-09-06T22:01:55.341Z,15.80
2018-09-06T22:04:24.666Z,17.17
2018-09-06T22:07:02.727Z,16.33
2018-09-06T22:09:32.386Z,14.90
2018-09-06T22:12:21.308Z,14.50
2018-09-06T22:14:51.803Z,14.40
2018-09-06T22:17:21.732Z,14.43
2018-09-06T22:19:51.011Z,14.33
2018-09-06T22:22:20.361Z,15.37
2018-09-06T22:24:50.926Z,15.10
2018-09-06T22:27:22.876Z,14.57
2018-09-06T22:29:52.688Z,15.07
2018-09-06T22:32:22.015Z,15.77
2018-09-06T22:34:51.379Z,15.07
2018-09-06T22:37:20.640Z,15.97
2018-09-06T22:39:50.651Z,14.30
2018-09-06T22:42:22.303Z,15.23
2018-09-06T22:44:51.450Z,15.67
2018-09-06T22:47:21.788Z,15.27
2018-09-06T22:49:50.953Z,17.03
2018-09-06T22:52:20.488Z,14.60
2018-09-06T22:54:50.975Z,17.13
2018-09-06T22:57:20.245Z,15.87
2018-09-06T22:59:49.993Z,15.27
2018-09-06T23:02:19.410Z,14.40
2018-09-06T23:04:48.825Z,13.73
2018-09-06T23:07:18.138Z,14.83
2018-09-06T23:09:47.515Z,13.80
2018-09-06T23:12:16.951Z,14.43
2018-09-06T23:14:46.343Z,15.27
2018-09-06T23:17:15.837Z,15.37
2018-09-06T23:19:44.911Z,15.37
2018-09-06T23:22:14.213Z,14.83
2018-09-06T23:24:43.192Z,15.50
2018-09-06T23:27:12.905Z,15.43
2018-09-06T23:29:42.146Z,15.33
2018-09-06T23:32:14.858Z,14.80
2018-09-06T23:34:44.376Z,16.03
2018-09-06T23:37:15.503Z,16.60
2018-09-06T23:39:45.563Z,17.33
2018-09-06T23:42:17.298Z,17.37
2018-09-06T23:44:48.024Z,15.87
2018-09-06T23:47:18.931Z,18.90
2018-09-06T23:49:49.065Z,19.20
2018-09-06T23:52:18.439Z,19.37
2018-09-06T23:54:49.499Z,19.03
2018-09-06T23:57:19.667Z,18.17
2018-09-06T23:59:50.579Z,17.53
